Latest Coastal Weather Observations for Maningrida Airport

IDD60701

Issued at 11:11 pm CST Sunday 11 December 2016 (issued every 10 minutes, with the page automatically refreshed every 10 minutes)

About coastal observations | Map of coastal stations | Coastal observations for NT | Marine services | Other Formats
Station Details ID: 014405 Name: MANINGRIDA AIRPORT Lat: -12.06 Lon: 134.23 Height: 28.1 m
Data from the previous 72 hours. | See also: Recent months at Maningrida Airport
Date/Time
CST
Temp
°C
Wind Pressure Rain since
9am
mm
Weather Cloud Vis
km
Sea
Height
m
Swell
Dir  Spd
kts
Gust
kts
hPa Trend Height
m
Period
s
Dir
11/11:00pm 23.4 S 6 9 1009.7 - 18.0 - - - - - - -
11/10:30pm 23.4 SSW 5 6 1009.3 - 18.0 - - - - - - -
11/10:00pm 23.4 SSW 5 7 1009.0 - 17.8 - Partly cloudy - - - - -
11/09:30pm 23.4 SSW 5 7 1008.6 - 17.6 - Partly cloudy - - - - -
11/09:00pm 23.2 SW 6 10 1008.4 - 17.6 Rain Mostly cloudy - - - - -
11/08:30pm 23.3 WSW 5 9 1008.1 - 17.4 - Partly cloudy - - - - -
11/08:00pm 23.3 SSW 5 8 1008.2 - 17.2 - Partly cloudy - - - - -
11/07:30pm 22.7 SW 5 8 1008.3 - 17.0 - Partly cloudy - - - - -
11/07:00pm 22.7 SSW 3 8 1008.1 - 16.8 - Partly cloudy - - - - -
11/06:30pm 22.6 SSE 17 25 1008.8 - 16.4 - Partly cloudy - - - - -
11/06:14pm 26.2 ESE 15 38 1008.9 - 12.8 - Partly cloudy - - - - -
11/06:12pm 27.6 ESE 11 37 1008.6 - 12.8 - Partly cloudy - - - - -
11/06:00pm 30.0 ENE 6 8 1007.6 - 12.8 - Cloudy - - - - -
11/05:30pm 30.3 NE 7 10 1007.1 - 12.8 - - - - - - -
11/05:00pm 30.4 NNE 9 13 1005.8 - 12.8 - - - - - - -
11/04:30pm 30.4 N 10 14 1004.3 - 12.8 - - - - - - -
11/04:00pm 31.1 N 10 14 1004.8 - 12.8 - - - - - - -
11/03:30pm 31.4 N 11 13 1005.2 - 12.8 - - - - - - -
11/03:00pm 31.4 N 11 14 1005.6 - 12.8 - - - - - - -
11/02:30pm 30.8 NNW 8 13 1006.0 - 12.8 - - - - - - -
11/02:00pm 30.7 N 7 9 1006.7 - 12.8 - - - - - - -
11/01:30pm 30.4 NNW 6 7 1006.8 - 12.6 - - - - - - -
11/01:07pm 25.7 NNE 5 9 1007.4 - 12.6 - Partly cloudy - - - - -
11/01:00pm 24.2 NNE 7 11 1007.8 - 12.6 - Partly cloudy - - - - -
11/12:56pm 24.2 N 8 12 1007.8 - 12.6 - Partly cloudy - - - - -
11/12:30pm 25.2 SE 10 15 1008.8 - 3.4 - Partly cloudy - - - - -
11/12:00pm 24.5 SSW 8 12 1008.8 - 2.4 Rain Cloudy - - - - -
11/11:30am 26.1 SW 9 17 1009.4 - 0.0 - Partly cloudy - - - - -
11/11:00am 31.0 N 12 16 1008.6 - 0.0 - Partly cloudy - - - - -
11/10:30am 31.4 NNW 10 14 1009.1 - 0.0 - Partly cloudy - - - - -
11/10:00am 31.7 NNW 9 13 1009.4 - 0.0 - Partly cloudy - - - - -
11/09:30am 31.1 W 5 7 1009.5 - 0.0 - Partly cloudy - - - - -
11/09:00am 31.4 NW 4 5 1009.4 - 0.0 - Cloudy - - - - -
11/08:30am 30.6 ENE 4 5 1009.2 - 0.0 - Partly cloudy - - - - -
11/08:00am 30.5 SSW 3 4 1009.0 - 0.0 - - - - - - -
11/07:30am 29.3 S 4 6 1008.7 - 0.0 - Partly cloudy - - - - -
11/07:00am 27.6 SW 3 4 1008.3 - 0.0 - Partly cloudy - - - - -
11/06:30am 26.9 CALM 0 0 1007.8 - 0.0 - Partly cloudy - - - - -
11/06:00am 26.6 SSW 3 4 1007.3 - 0.0 - Mostly clear - - - - -
11/05:30am 26.8 SW 3 4 1006.9 - 0.0 - - - - - - -
11/05:00am 27.0 SSW 2 5 1006.7 - 0.0 - Partly cloudy - - - - -
11/04:30am 27.4 S 2 3 1006.5 - 0.0 - Partly cloudy - - - - -
11/04:00am 27.3 SW 4 5 1006.3 - 0.0 - Partly cloudy - - - - -
11/03:30am 28.3 SE 3 4 1006.2 - 0.0 - Partly cloudy - - - - -
11/03:00am 28.1 SE 3 4 1006.3 - 0.0 - Partly cloudy - - - - -
11/02:30am 28.4 SE 3 4 1006.3 - 0.0 - Partly cloudy - - - - -
11/02:00am 28.3 SSE 4 5 1006.7 - 0.0 - Partly cloudy - - - - -
11/01:30am 28.6 SSE 3 5 1006.9 - 0.0 - Partly cloudy - - - - -
11/01:00am 28.7 SSE 3 5 1007.1 - 0.0 - Partly cloudy - - - - -
11/12:30am 29.1 SSE 2 4 1007.2 - 0.0 - Partly cloudy - - - - -
11/12:00am 29.1 SSE 3 4 1007.6 - 0.0 - Cloudy - - - - -
 
Date/Time
CST
Temp
°C
Wind Pressure Rain since
9am
mm
Weather Cloud Vis
km
Sea
Height
m
Swell
Dir  Spd
kts
Gust
kts
hPa Trend Height
m
Period
s
Dir
10/11:30pm 29.2 E 1 3 1007.8 - 0.0 - Partly cloudy - - - - -
10/11:00pm 29.5 E 2 3 1007.8 - 0.0 - - - - - - -
10/10:30pm 29.7 E 3 4 1007.9 - 0.0 - - - - - - -
10/10:00pm 29.9 E 3 5 1008.0 - 0.0 - - - - - - -
10/09:30pm 30.0 E 4 4 1007.8 - 0.0 - - - - - - -
10/09:00pm 30.2 E 3 5 1007.7 - 0.0 - Mostly clear - - - - -
10/08:30pm 30.3 E 3 5 1007.8 - 0.0 - Partly cloudy - - - - -
10/08:00pm 30.4 NNE 5 9 1007.5 - 0.0 - Partly cloudy - - - - -
10/07:30pm 30.5 NNE 7 10 1007.3 - 0.0 - Partly cloudy - - - - -
10/07:00pm 30.7 NE 7 9 1006.7 - 0.0 - - - - - - -
10/06:30pm 30.8 NNE 8 12 1006.4 - 0.0 - - - - - - -
10/06:00pm 31.0 NNE 10 14 1006.0 - 0.0 - - - - - - -
10/05:30pm 31.4 NNE 10 14 1005.9 - 0.0 - - - - - - -
10/05:00pm 32.3 NNE 12 19 1005.5 - 0.0 - - - - - - -
10/04:30pm 32.6 NNE 12 17 1005.7 - 0.0 - - - - - - -
10/04:00pm 33.1 NNE 12 18 1005.9 - 0.0 - - - - - - -
10/03:30pm 33.3 NNE 14 17 1006.0 - 0.0 - - - - - - -
10/03:00pm 33.0 N 12 17 1006.2 - 0.0 - Mostly cloudy - - - - -
10/02:30pm 32.4 N 13 17 1007.0 - 0.0 - - - - - - -
10/02:00pm 33.8 N 12 17 1007.2 - 0.0 - - - - - - -
10/01:30pm 33.8 N 12 16 1007.2 - 0.0 - - - - - - -
10/01:00pm 33.4 N 13 17 1007.6 - 0.0 - - - - - - -
10/12:30pm 33.8 N 12 15 1007.8 - 0.0 - - - - - - -
10/12:00pm 33.9 N 11 14 1008.2 - 0.0 - - - - - - -
10/11:30am 34.0 N 11 13 1008.6 - 0.0 - - - - - - -
10/11:00am 33.0 NNW 9 13 1009.2 - 0.0 - - - - - - -
10/10:30am 33.6 NNW 6 11 1009.5 - 0.0 - Partly cloudy - - - - -
10/10:00am 32.5 NNW 7 9 1009.1 - 0.0 - - - - - - -
10/09:30am 32.2 NNW 7 10 1009.0 - 0.0 - - - - - - -
10/09:00am 31.7 W 4 7 1009.2 - 0.0 - - - - - - -
10/08:30am 30.7 WSW 2 5 1009.2 - 0.0 - - - - - - -
10/08:00am 29.8 SW 3 5 1009.1 - 0.0 - - - - - - -
10/07:30am 28.9 S 3 5 1009.0 - 0.0 - - - - - - -
10/07:00am 27.4 SSE 3 4 1008.7 - 0.0 - - - - - - -
10/06:30am 25.7 SSE 3 4 1008.4 - 0.0 - - - - - - -
10/06:00am 25.2 SSE 5 6 1008.2 - 0.0 - - - - - - -
10/05:30am 25.1 SE 1 4 1007.5 - 0.0 - - - - - - -
10/05:00am 26.1 SE 1 4 1007.1 - 0.0 - - - - - - -
10/04:30am 26.2 SSE 4 4 1007.2 - 0.0 - - - - - - -
10/04:00am 26.6 SSE 4 4 1007.0 - 0.0 - - - - - - -
10/03:30am 26.6 SSE 4 5 1007.2 - 0.0 - - - - - - -
10/03:00am 26.7 SSE 4 5 1007.3 - 0.0 - Mostly clear - - - - -
10/02:30am 26.6 SSE 4 6 1007.1 - 0.0 - - - - - - -
10/02:00am 26.7 SSE 3 4 1007.4 - 0.0 - Partly cloudy - - - - -
10/01:30am 27.3 SSE 3 4 1007.7 - 0.0 - Partly cloudy - - - - -
10/01:00am 27.6 SE 4 4 1007.8 - 0.0 - Partly cloudy - - - - -
10/12:30am 28.4 ESE 4 5 1008.0 - 0.0 - - - - - - -
10/12:00am 28.8 ENE 4 5 1008.3 - 0.0 - - - - - - -
 
Date/Time
CST
Temp
°C
Wind Pressure Rain since
9am
mm
Weather Cloud Vis
km
Sea
Height
m
Swell
Dir  Spd
kts
Gust
kts
hPa Trend Height
m
Period
s
Dir
09/11:30pm 29.1 NE 5 8 1008.4 - 0.0 - - - - - - -
09/11:00pm 29.3 NE 5 8 1008.7 - 0.0 - Partly cloudy - - - - -
09/10:30pm 29.4 NNE 6 8 1008.3 - 0.0 - - - - - - -
09/10:00pm 29.8 NNE 8 10 1008.2 - 0.0 - - - - - - -
09/09:30pm 29.8 NNE 8 10 1008.0 - 0.0 - - - - - - -
09/09:00pm 29.8 NNE 7 10 1007.7 - 0.0 - - - - - - -
09/08:30pm 29.9 NNE 8 11 1007.5 - 0.0 - - - - - - -
09/08:00pm 30.0 NNE 8 13 1007.5 - 0.0 - - - - - - -
09/07:30pm 30.1 NNE 8 11 1007.3 - 0.0 - - - - - - -
09/07:00pm 30.2 NNE 8 12 1006.9 - 0.0 - - - - - - -
09/06:30pm 30.4 NNE 9 13 1006.4 - 0.0 - - - - - - -
09/06:00pm 31.0 NNE 10 14 1006.2 - 0.0 - - - - - - -
09/05:30pm 31.4 NNE 10 14 1005.8 - 0.0 - - - - - - -
09/05:00pm 32.0 N 10 14 1005.4 - 0.0 - - - - - - -
09/04:30pm 32.4 NNE 11 17 1005.7 - 0.0 - - - - - - -
09/04:00pm 33.2 NNE 11 16 1005.9 - 0.0 - - - - - - -
09/03:30pm 33.6 NNE 11 15 1005.9 - 0.0 - - - - - - -
09/03:00pm 34.1 NNE 10 15 1006.3 - 0.0 - - - - - - -
09/02:30pm 33.6 NNE 12 15 1006.6 - 0.0 - - - - - - -
09/02:00pm 34.1 NE 10 17 1006.9 - 0.0 - - - - - - -
09/01:30pm 33.9 NE 11 16 1006.9 - 0.0 - - - - - - -
09/01:00pm 34.5 NE 12 19 1007.1 - 0.0 - - - - - - -
09/12:30pm 34.4 NE 10 16 1007.2 - 0.0 - - - - - - -
09/12:00pm 34.5 ENE 9 19 1007.4 - 0.0 - - - - - - -
09/11:30am 33.8 ENE 9 14 1007.9 - 0.0 - - - - - - -
09/11:00am 33.4 NE 9 14 1008.1 - 0.0 - - - - - - -
09/10:30am 32.6 NE 9 14 1008.5 - 0.0 - Partly cloudy - - - - -
09/10:00am 33.1 ENE 7 14 1009.0 - 0.0 - Partly cloudy - - - - -
09/09:30am 32.9 ENE 8 12 1008.8 - 0.0 - Partly cloudy - - - - -
09/09:00am 30.8 SE 6 10 1008.8 - 0.0 - Mostly clear - - - - -
09/08:30am 31.3 ESE 5 7 1008.8 - 0.0 - - - - - - -
09/08:00am 29.9 ESE 6 8 1008.7 - 0.0 - Partly cloudy - - - - -
09/07:30am 28.7 SE 7 8 1008.4 - 0.0 - - - - - - -
09/07:00am 26.6 SSE 6 8 1008.1 - 0.0 - - - - - - -
09/06:30am 25.8 SSE 5 6 1007.7 - 0.0 - - - - - - -
09/06:00am 25.4 S 4 5 1007.4 - 0.0 - - - - - - -
09/05:30am 25.5 S 5 6 1007.1 - 0.0 - - - - - - -
09/05:00am 25.6 SSW 5 7 1006.8 - 0.0 - Partly cloudy - - - - -
09/04:30am 25.8 SSW 4 6 1006.5 - 0.0 - - - - - - -
09/04:00am 26.0 SSW 5 7 1006.5 - 0.0 - Partly cloudy - - - - -
09/03:30am 26.1 SW 4 5 1006.5 - 0.0 - Partly cloudy - - - - -
09/03:00am 26.7 CALM 0 3 1006.5 - 0.0 - Mostly clear - - - - -
09/02:30am 28.3 NE 1 3 1006.7 - 0.0 - Partly cloudy - - - - -
09/02:00am 28.9 NE 3 5 1006.9 - 0.0 - Partly cloudy - - - - -
09/01:30am 29.0 NNE 4 6 1007.1 - 0.0 - - - - - - -
09/01:00am 29.0 ENE 5 7 1007.1 - 0.0 - Partly cloudy - - - - -
09/12:30am 28.8 ENE 4 6 1007.2 - 0.0 - Partly cloudy - - - - -
09/12:00am 28.8 E 3 5 1007.2 - 0.0 - - - - - - -
 
Date/Time
CST
Temp
°C
Wind Pressure Rain since
9am
mm
Weather Cloud Vis
km
Sea
Height
m
Swell
Dir  Spd
kts
Gust
kts
hPa Trend Height
m
Period
s
Dir
08/11:30pm 28.7 E 4 5 1007.4 - 0.0 - - - - - - -

Other Formats:

Comma delimited format used in spreadsheet applications
http://www.bom.gov.au/fwo/IDD60701/IDD60701.95142.axf

JavaScript Object Notation format (JSON) in row-major order
http://www.bom.gov.au/fwo/IDD60701/IDD60701.95142.json